Time;durP1;ratioP1;P1;durP2;ratioP2;P2;SDS_P1;SDS_P2;PMS_P1;PMS_P2;Temp;Humidity;BMP_temperature;BMP_pressure;BME280_temperature;BME280_humidity;BME280_pressure;Samples;Min_cycle;Max_cycle;Signal;HPM_P1;HPM_P2
2023/01/05 00:01:26;;;;;;;35.80;6.40;;;10.50;99.90;;;;;;4990317;28;20041;-74
2023/01/05 00:03:51;;;;;;;32.88;6.95;;;10.30;99.90;;;;;;4988509;28;20026;-73
2023/01/05 00:06:17;;;;;;;48.08;6.10;;;10.30;99.90;;;;;;4989505;28;20367;-74
2023/01/05 00:08:43;;;;;;;46.05;6.90;;;10.30;99.90;;;;;;4987476;28;20034;-74
2023/01/05 00:22:50;;;;;;;38.63;5.18;;;10.30;99.90;;;;;;4988875;28;20045;-73
2023/01/05 00:25:21;;;;;;;34.30;6.05;;;10.20;99.90;;;;;;4988711;28;20102;-73
2023/01/05 00:27:50;;;;;;;42.42;5.82;;;10.20;99.90;;;;;;4990932;28;20121;-74
2023/01/05 00:30:18;;;;;;;30.23;5.05;;;10.20;99.90;;;;;;4993495;28;20513;-73
2023/01/05 00:32:44;;;;;;;43.88;6.45;;;10.20;99.90;;;;;;4984630;28;20026;-73
2023/01/05 00:35:12;;;;;;;37.58;6.35;;;10.30;99.90;;;;;;4992948;28;20023;-73
2023/01/05 00:37:38;;;;;;;40.55;9.02;;;10.30;99.90;;;;;;4990126;28;20435;-73
2023/01/05 00:40:06;;;;;;;36.08;5.65;;;10.30;99.90;;;;;;4993870;28;20057;-74
2023/01/05 00:42:32;;;;;;;45.95;6.57;;;10.30;99.90;;;;;;4991275;28;20026;-73
2023/01/05 00:44:58;;;;;;;47.25;6.78;;;10.30;99.90;;;;;;4991983;28;20049;-74
2023/01/05 00:47:24;;;;;;;41.50;6.85;;;10.30;99.90;;;;;;4990334;28;20014;-72
2023/01/05 00:49:50;;;;;;;50.58;6.53;;;10.30;99.90;;;;;;4991762;28;20049;-74
2023/01/05 00:52:15;;;;;;;35.80;6.25;;;10.40;99.90;;;;;;4993548;28;20034;-73
2023/01/05 00:54:41;;;;;;;34.08;6.10;;;10.40;99.90;;;;;;4990994;28;20034;-73
2023/01/05 00:57:10;;;;;;;39.88;7.50;;;10.40;99.90;;;;;;4991929;28;20415;-73
2023/01/05 00:59:36;;;;;;;36.05;5.75;;;10.40;99.90;;;;;;4992029;28;20561;-73
2023/01/05 01:02:02;;;;;;;41.15;7.00;;;10.30;99.90;;;;;;4993697;28;20054;-73
2023/01/05 01:04:30;;;;;;;38.28;6.65;;;10.30;99.90;;;;;;4992237;28;20037;-73
2023/01/05 01:06:56;;;;;;;44.35;6.03;;;10.30;99.90;;;;;;4989696;28;20364;-73
2023/01/05 01:09:22;;;;;;;40.03;5.97;;;10.30;99.90;;;;;;4992106;28;20486;-73
2023/01/05 01:11:48;;;;;;;39.45;5.43;;;10.20;99.90;;;;;;4988536;28;20026;-73
2023/01/05 01:14:14;;;;;;;39.20;7.65;;;10.10;99.90;;;;;;4992705;28;20042;-73
2023/01/05 01:16:41;;;;;;;44.60;7.28;;;10.20;99.90;;;;;;4990311;28;20117;-74
2023/01/05 01:19:12;;;;;;;29.88;5.50;;;10.10;99.90;;;;;;4991731;28;20018;-73
2023/01/05 01:21:38;;;;;;;32.08;5.72;;;10.10;99.90;;;;;;4989064;28;20572;-73
2023/01/05 01:24:04;;;;;;;42.45;6.93;;;10.20;99.90;;;;;;4992906;28;20062;-72
2023/01/05 01:26:29;;;;;;;30.17;5.25;;;10.10;99.90;;;;;;4989699;28;20038;-74
2023/01/05 01:28:55;;;;;;;38.80;6.50;;;10.20;99.90;;;;;;4992905;28;20427;-74
2023/01/05 01:31:21;;;;;;;47.92;6.97;;;10.10;99.90;;;;;;4992554;28;20026;-72
2023/01/05 01:33:47;;;;;;;40.00;6.70;;;10.00;99.90;;;;;;4989861;28;20034;-73
2023/01/05 01:36:12;;;;;;;40.13;7.22;;;10.00;99.90;;;;;;4984502;28;20041;-74
2023/01/05 01:38:38;;;;;;;39.97;6.78;;;10.10;99.90;;;;;;4989007;28;20419;-74
2023/01/05 01:41:04;;;;;;;40.13;7.38;;;10.10;99.90;;;;;;4992148;28;20030;-73
2023/01/05 01:43:54;;;;;;;42.55;6.28;;;10.10;99.90;;;;;;4989796;28;20030;-73
2023/01/05 01:46:21;;;;;;;51.15;5.65;;;10.00;99.90;;;;;;4988265;28;20037;-73
2023/01/05 01:49:07;;;;;;;34.17;5.35;;;10.00;99.90;;;;;;4990095;28;20030;-74
2023/01/05 01:51:43;;;;;;;33.53;6.22;;;9.90;99.90;;;;;;4985839;28;20385;-73
2023/01/05 01:54:14;;;;;;;44.20;6.38;;;9.80;99.90;;;;;;4991143;28;20552;-73
2023/01/05 01:56:50;;;;;;;44.23;7.00;;;9.80;99.90;;;;;;4988266;28;20026;-73
2023/01/05 01:59:17;;;;;;;35.13;5.72;;;9.70;99.90;;;;;;4991284;28;20050;-78
2023/01/05 02:01:43;;;;;;;44.03;6.05;;;9.80;99.90;;;;;;4989148;28;20026;-73
2023/01/05 02:04:09;;;;;;;39.40;6.70;;;9.80;99.90;;;;;;4990274;28;20069;-73
2023/01/05 02:06:36;;;;;;;40.42;5.78;;;9.80;99.90;;;;;;4987527;28;20101;-73
2023/01/05 02:09:03;;;;;;;40.65;6.90;;;9.80;99.90;;;;;;4990630;28;20034;-74
2023/01/05 02:11:53;;;;;;;32.45;5.57;;;9.70;99.90;;;;;;4990393;28;20030;-72
2023/01/05 02:14:52;;;;;;;32.97;4.93;;;9.70;99.90;;;;;;4976959;28;20104;-72
2023/01/05 02:17:43;;;;;;;32.40;6.05;;;9.70;99.90;;;;;;4990045;28;20026;-74
2023/01/05 02:20:47;;;;;;;46.55;5.47;;;9.60;99.90;;;;;;4990864;28;20368;-74
2023/01/05 02:23:15;;;;;;;33.00;4.93;;;9.70;99.90;;;;;;4990670;28;20033;-72
2023/01/05 02:26:32;;;;;;;33.42;6.22;;;10.00;99.90;;;;;;4987973;28;20034;-73
2023/01/05 02:29:10;;;;;;;36.92;5.35;;;10.10;99.90;;;;;;4947969;29;20118;-72
2023/01/05 02:31:47;;;;;;;35.03;5.38;;;10.10;99.90;;;;;;4948312;29;20047;-72
2023/01/05 02:34:43;;;;;;;37.28;5.45;;;10.10;99.90;;;;;;4948994;29;20027;-72
2023/01/05 02:37:27;;;;;;;26.80;5.45;;;10.10;99.90;;;;;;4944659;29;20122;-72
2023/01/05 02:40:02;;;;;;;39.83;5.03;;;10.20;99.90;;;;;;4948179;29;20031;-73
2023/01/05 02:42:33;;;;;;;25.88;5.22;;;10.30;99.90;;;;;;4949200;29;20050;-72
2023/01/05 02:45:04;;;;;;;28.80;4.10;;;10.30;99.90;;;;;;4932732;29;20035;-72
2023/01/05 02:47:35;;;;;;;29.98;6.00;;;10.40;99.90;;;;;;4947415;29;20109;-72
2023/01/05 02:50:07;;;;;;;28.42;5.03;;;10.50;99.90;;;;;;4949052;28;20079;-72
2023/01/05 02:52:56;;;;;;;28.92;5.07;;;10.40;99.90;;;;;;4947796;29;20037;-72
2023/01/05 02:55:31;;;;;;;40.70;7.35;;;10.40;99.90;;;;;;4949585;29;20170;-72
2023/01/05 02:58:24;;;;;;;27.08;4.68;;;10.40;99.90;;;;;;4948976;29;20023;-73
2023/01/05 03:00:54;;;;;;;36.80;5.63;;;10.40;99.90;;;;;;4947816;29;20054;-73
2023/01/05 03:03:27;;;;;;;35.97;6.60;;;10.40;99.90;;;;;;4975688;28;20042;-73
2023/01/05 03:05:57;;;;;;;33.13;5.05;;;10.40;99.90;;;;;;4988192;28;20125;-73
2023/01/05 03:08:25;;;;;;;28.60;5.10;;;10.40;99.90;;;;;;4988658;28;20041;-73
2023/01/05 03:14:07;;;;;;;28.45;4.90;;;10.40;99.90;;;;;;4978900;28;20046;-73
2023/01/05 03:16:36;;;;;;;28.52;5.22;;;10.30;99.90;;;;;;4981671;28;20077;-74
2023/01/05 03:36:09;;;;;;;31.55;4.68;;;10.30;99.90;;;;;;4983317;28;20041;-73
2023/01/05 03:38:44;;;;;;;39.42;6.90;;;10.40;99.90;;;;;;4988466;28;20037;-73
2023/01/05 03:41:16;;;;;;;33.53;7.05;;;10.40;99.90;;;;;;4984034;28;20064;-73
2023/01/05 03:43:42;;;;;;;28.42;5.78;;;10.40;99.90;;;;;;4986402;28;20505;-72
2023/01/05 03:46:11;;;;;;;26.40;4.30;;;10.40;99.90;;;;;;4988464;28;20450;-72
2023/01/05 03:48:36;;;;;;;29.65;5.00;;;10.40;99.90;;;;;;4987981;28;20039;-73
2023/01/05 03:51:02;;;;;;;32.30;5.65;;;10.40;99.90;;;;;;4990375;28;20038;-73
2023/01/05 03:53:28;;;;;;;23.55;4.72;;;10.40;99.90;;;;;;4989295;28;20022;-73
2023/01/05 03:55:54;;;;;;;29.02;5.70;;;10.40;99.90;;;;;;4988761;28;20517;-74
2023/01/05 03:58:19;;;;;;;30.65;4.80;;;10.40;99.90;;;;;;4987857;28;20026;-73
2023/01/05 04:00:45;;;;;;;30.80;4.50;;;10.40;99.90;;;;;;4988081;28;20062;-73
2023/01/05 04:03:11;;;;;;;26.30;4.85;;;10.40;99.90;;;;;;4993798;28;20482;-74
2023/01/05 04:05:37;;;;;;;26.75;5.13;;;10.40;99.90;;;;;;4989829;28;20055;-74
2023/01/05 04:08:02;;;;;;;36.22;4.32;;;10.40;99.90;;;;;;4993939;28;20109;-73
2023/01/05 04:10:28;;;;;;;30.08;5.95;;;10.40;99.90;;;;;;4993500;28;20050;-73
2023/01/05 04:12:54;;;;;;;37.90;6.40;;;10.40;99.90;;;;;;4992349;28;20031;-74
2023/01/05 04:15:20;;;;;;;41.35;5.45;;;10.40;99.90;;;;;;4992388;28;20026;-73
2023/01/05 04:17:45;;;;;;;34.83;4.70;;;10.50;99.90;;;;;;4984893;28;20057;-74
2023/01/05 04:20:11;;;;;;;26.48;5.30;;;10.60;99.90;;;;;;4985596;28;20068;-74
2023/01/05 04:22:37;;;;;;;26.38;3.67;;;10.60;99.90;;;;;;4990997;28;20037;-73
2023/01/05 04:25:03;;;;;;;44.30;5.47;;;10.50;99.90;;;;;;4991548;28;20026;-74
2023/01/05 04:27:28;;;;;;;38.28;5.65;;;10.50;99.90;;;;;;4991550;28;20062;-73
2023/01/05 04:29:54;;;;;;;25.38;4.47;;;10.50;99.90;;;;;;4992258;28;20035;-73
2023/01/05 04:32:20;;;;;;;25.52;4.40;;;10.50;99.90;;;;;;4993164;28;20030;-73
2023/01/05 04:34:45;;;;;;;41.83;7.07;;;10.50;99.90;;;;;;4985531;28;20035;-73
2023/01/05 04:37:11;;;;;;;31.27;5.18;;;10.50;99.90;;;;;;4989314;28;20033;-73
2023/01/05 04:39:37;;;;;;;21.55;3.63;;;10.50;99.90;;;;;;4991964;28;20057;-72
2023/01/05 04:42:03;;;;;;;36.05;6.88;;;10.50;99.90;;;;;;4992091;28;20088;-73
2023/01/05 04:44:31;;;;;;;27.85;5.75;;;10.50;99.90;;;;;;4992447;28;20077;-73
2023/01/05 04:46:57;;;;;;;32.05;3.72;;;10.50;99.90;;;;;;4991879;28;20347;-73
2023/01/05 04:49:22;;;;;;;39.28;6.50;;;10.50;99.90;;;;;;4987750;28;20053;-74
2023/01/05 04:51:48;;;;;;;38.70;4.38;;;10.40;99.90;;;;;;4985825;28;20030;-74
2023/01/05 04:54:14;;;;;;;33.72;6.20;;;10.40;99.90;;;;;;4990877;28;20030;-72
2023/01/05 04:56:39;;;;;;;39.53;5.90;;;10.30;99.90;;;;;;4989628;28;20026;-72
2023/01/05 04:59:05;;;;;;;30.02;5.63;;;10.30;99.90;;;;;;4993071;28;20556;-72
2023/01/05 05:01:31;;;;;;;25.60;3.53;;;10.10;99.90;;;;;;4990875;28;20057;-71
2023/01/05 05:03:57;;;;;;;35.35;4.45;;;10.00;99.90;;;;;;4991022;28;20385;-72
2023/01/05 05:06:22;;;;;;;29.38;4.72;;;10.00;99.90;;;;;;4992687;28;20502;-72
2023/01/05 05:08:48;;;;;;;32.58;4.80;;;9.90;99.90;;;;;;4990612;28;20053;-73
2023/01/05 05:11:14;;;;;;;27.35;3.72;;;9.90;99.90;;;;;;4990852;28;20034;-73
2023/01/05 05:13:40;;;;;;;31.70;6.07;;;9.90;99.90;;;;;;4989528;28;20032;-72
2023/01/05 05:16:06;;;;;;;31.63;5.57;;;10.00;99.90;;;;;;4992558;28;20097;-72
2023/01/05 05:18:32;;;;;;;36.78;4.70;;;10.00;99.90;;;;;;4989230;28;20030;-74
2023/01/05 05:20:57;;;;;;;32.72;4.47;;;10.00;99.90;;;;;;4992442;28;20066;-74
2023/01/05 05:23:23;;;;;;;33.67;6.07;;;10.10;99.90;;;;;;4991261;28;20028;-73
2023/01/05 05:25:50;;;;;;;31.67;5.63;;;10.10;99.90;;;;;;4988751;28;20409;-72
2023/01/05 05:28:17;;;;;;;41.60;4.95;;;10.10;99.90;;;;;;4982661;28;20482;-72
2023/01/05 05:30:43;;;;;;;37.70;6.63;;;10.10;99.90;;;;;;4990251;28;20038;-73
2023/01/05 05:33:08;;;;;;;36.25;5.03;;;10.10;99.90;;;;;;4989281;28;20454;-72
2023/01/05 05:35:34;;;;;;;45.08;5.30;;;10.20;99.90;;;;;;4990214;28;20448;-72
2023/01/05 05:38:00;;;;;;;34.65;6.07;;;10.20;99.90;;;;;;4990662;28;20129;-72
2023/01/05 05:40:27;;;;;;;35.15;6.10;;;10.10;99.90;;;;;;4992088;28;20027;-73
2023/01/05 05:42:53;;;;;;;34.30;5.13;;;10.20;99.90;;;;;;4989509;28;20066;-72
2023/01/05 05:45:19;;;;;;;34.50;5.32;;;10.20;99.90;;;;;;4991151;28;20022;-73
2023/01/05 05:47:45;;;;;;;39.80;5.70;;;10.20;99.90;;;;;;4989787;28;20061;-73
2023/01/05 05:50:11;;;;;;;34.22;4.43;;;10.30;99.90;;;;;;4991016;28;20121;-73
2023/01/05 05:52:36;;;;;;;29.27;4.63;;;10.30;99.90;;;;;;4988880;28;20027;-72
2023/01/05 05:55:02;;;;;;;37.83;5.63;;;10.30;99.90;;;;;;4989908;28;20026;-72
2023/01/05 05:57:28;;;;;;;33.13;5.22;;;10.30;99.90;;;;;;4990428;28;20034;-74
2023/01/05 05:59:54;;;;;;;39.25;5.60;;;10.30;99.90;;;;;;4989161;28;20045;-73
2023/01/05 06:02:20;;;;;;;31.75;5.00;;;10.30;99.90;;;;;;4990837;28;20050;-73
2023/01/05 06:04:45;;;;;;;35.70;5.18;;;10.30;99.90;;;;;;4988614;28;20061;-73
2023/01/05 06:07:11;;;;;;;26.52;4.60;;;10.30;99.90;;;;;;4989800;28;20109;-72
2023/01/05 06:09:37;;;;;;;37.65;4.25;;;10.30;99.90;;;;;;4988009;28;20042;-73
2023/01/05 06:12:03;;;;;;;34.50;5.10;;;10.30;99.90;;;;;;4989902;28;20023;-73
2023/01/05 06:14:29;;;;;;;32.55;5.20;;;10.40;99.90;;;;;;4990494;28;20056;-73
2023/01/05 06:16:55;;;;;;;31.95;4.28;;;10.30;99.90;;;;;;4989069;28;20030;-73
2023/01/05 06:19:20;;;;;;;37.50;5.55;;;10.30;99.90;;;;;;4991345;28;20029;-73
2023/01/05 06:21:46;;;;;;;28.13;4.72;;;10.30;99.90;;;;;;4988748;28;20022;-72
2023/01/05 06:24:12;;;;;;;38.08;7.45;;;10.40;99.90;;;;;;4988124;28;20438;-72
2023/01/05 06:26:38;;;;;;;32.72;5.70;;;10.30;99.90;;;;;;4988180;28;20026;-73
2023/01/05 06:29:07;;;;;;;53.63;6.30;;;10.30;99.90;;;;;;4990309;28;20123;-73
2023/01/05 06:31:32;;;;;;;35.47;4.07;;;10.30;99.90;;;;;;5004100;28;20034;-71
2023/01/05 06:33:58;;;;;;;32.83;4.80;;;10.30;99.90;;;;;;4988730;28;20493;-75
2023/01/05 06:36:24;;;;;;;31.30;5.57;;;10.30;99.90;;;;;;4990056;28;20022;-73
2023/01/05 06:38:50;;;;;;;29.33;6.47;;;10.40;99.90;;;;;;4984401;28;20038;-73
2023/01/05 06:41:15;;;;;;;40.60;6.55;;;10.40;99.90;;;;;;4986046;28;20130;-72
2023/01/05 06:43:41;;;;;;;34.92;5.80;;;10.50;99.90;;;;;;4987963;28;20037;-73
2023/01/05 06:46:44;;;;;;;33.70;6.15;;;10.50;99.90;;;;;;4991156;28;20083;-73
2023/01/05 06:49:11;;;;;;;31.85;5.57;;;10.60;99.90;;;;;;4985775;28;20486;-73
2023/01/05 06:51:36;;;;;;;31.95;5.22;;;10.60;99.90;;;;;;4989288;28;20026;-73
2023/01/05 06:54:02;;;;;;;44.88;5.95;;;10.70;99.90;;;;;;4988949;28;20053;-74
2023/01/05 06:56:28;;;;;;;38.70;6.38;;;10.70;99.90;;;;;;4988778;28;20084;-73
2023/01/05 06:58:54;;;;;;;32.60;5.50;;;10.70;99.90;;;;;;4988401;28;20113;-73
2023/01/05 07:01:19;;;;;;;38.00;5.20;;;10.70;99.90;;;;;;4990183;28;20433;-73
2023/01/05 07:03:45;;;;;;;39.08;5.38;;;10.80;99.90;;;;;;4987889;28;20030;-73
2023/01/05 07:06:13;;;;;;;36.85;5.53;;;10.80;99.90;;;;;;4989844;28;20057;-72
2023/01/05 07:08:39;;;;;;;31.63;6.53;;;10.80;99.90;;;;;;4988545;28;20470;-73
2023/01/05 07:11:05;;;;;;;35.55;6.65;;;10.80;99.90;;;;;;4988462;28;20075;-74
2023/01/05 07:13:31;;;;;;;40.22;4.75;;;10.80;99.90;;;;;;4988106;28;20382;-73
2023/01/05 07:15:56;;;;;;;38.78;5.95;;;10.90;99.90;;;;;;4990276;28;20038;-74
2023/01/05 07:18:22;;;;;;;41.45;5.63;;;10.90;99.90;;;;;;4990164;28;20030;-73
2023/01/05 07:20:48;;;;;;;24.58;5.85;;;10.90;99.90;;;;;;4988433;28;20038;-74
2023/01/05 07:23:13;;;;;;;37.60;6.28;;;10.90;99.90;;;;;;4989253;28;20030;-73
2023/01/05 07:25:39;;;;;;;33.42;4.93;;;10.90;99.90;;;;;;4984485;28;20029;-74
2023/01/05 07:28:05;;;;;;;27.48;3.72;;;10.90;99.90;;;;;;4988126;28;20030;-74
2023/01/05 07:30:31;;;;;;;33.72;4.10;;;10.90;99.90;;;;;;4988937;28;20121;-73
2023/01/05 07:32:58;;;;;;;22.85;4.40;;;11.00;99.90;;;;;;4989428;28;20022;-73
2023/01/05 07:35:24;;;;;;;24.02;3.80;;;11.00;99.90;;;;;;4989286;28;20085;-72
2023/01/05 07:37:49;;;;;;;16.35;1.98;;;10.90;99.90;;;;;;4990936;28;20023;-74
2023/01/05 07:40:15;;;;;;;16.40;2.05;;;10.90;99.90;;;;;;4994142;28;20394;-73
2023/01/05 07:42:41;;;;;;;13.73;2.72;;;10.90;99.90;;;;;;4991453;28;20109;-74
2023/01/05 07:45:08;;;;;;;15.57;3.08;;;10.90;99.90;;;;;;4992546;28;20431;-73
2023/01/05 07:47:34;;;;;;;8.93;2.00;;;11.00;99.90;;;;;;4992177;28;20101;-74
2023/01/05 07:50:00;;;;;;;10.73;2.25;;;11.00;99.90;;;;;;4993479;28;20125;-73
2023/01/05 07:52:28;;;;;;;10.73;1.63;;;11.00;99.90;;;;;;4993114;28;20030;-72
2023/01/05 07:54:54;;;;;;;9.32;1.38;;;11.00;99.90;;;;;;4978619;28;20023;-73
2023/01/05 07:57:20;;;;;;;14.35;3.25;;;11.10;99.90;;;;;;4992999;28;20084;-72
2023/01/05 07:59:46;;;;;;;11.80;1.95;;;11.10;99.90;;;;;;4991777;28;20494;-72
2023/01/05 08:02:12;;;;;;;14.05;2.78;;;11.10;99.90;;;;;;4992815;28;20462;-73
2023/01/05 08:04:37;;;;;;;12.30;3.55;;;11.20;99.90;;;;;;4990885;28;20041;-73
2023/01/05 08:07:09;;;;;;;17.90;3.20;;;11.20;99.90;;;;;;4993541;28;20042;-74
2023/01/05 08:12:28;;;;;;;16.45;3.15;;;11.30;99.90;;;;;;4988405;28;20088;-73
2023/01/05 08:14:54;;;;;;;17.92;3.85;;;11.20;99.90;;;;;;4991083;28;20088;-72
2023/01/05 08:17:20;;;;;;;22.85;2.70;;;11.20;99.90;;;;;;4993210;28;20022;-74
2023/01/05 08:19:45;;;;;;;12.82;1.75;;;11.20;99.90;;;;;;4989967;28;20034;-72
2023/01/05 08:22:11;;;;;;;15.73;2.65;;;11.10;99.90;;;;;;4991980;28;20478;-73
2023/01/05 08:24:37;;;;;;;11.30;2.58;;;11.20;99.90;;;;;;4989791;28;20466;-73
2023/01/05 08:27:02;;;;;;;9.02;1.85;;;11.20;99.90;;;;;;4990067;28;20049;-72
2023/01/05 08:29:29;;;;;;;5.50;1.80;;;11.20;99.90;;;;;;4993069;28;20042;-73
2023/01/05 08:31:54;;;;;;;9.05;1.70;;;11.20;99.90;;;;;;4990699;28;20501;-73
2023/01/05 08:34:20;;;;;;;3.70;0.98;;;11.20;99.90;;;;;;4992463;28;20424;-73
2023/01/05 08:36:46;;;;;;;2.88;0.70;;;11.20;99.90;;;;;;4990952;28;20026;-73
2023/01/05 08:39:12;;;;;;;4.22;0.65;;;11.30;99.90;;;;;;4992571;28;20037;-73
2023/01/05 08:41:39;;;;;;;4.47;0.60;;;11.30;99.90;;;;;;4990003;28;20038;-73
2023/01/05 08:44:14;;;;;;;3.88;0.43;;;11.20;99.90;;;;;;4992028;28;20027;-73
2023/01/05 08:46:40;;;;;;;3.17;0.40;;;11.20;99.90;;;;;;4990349;28;20041;-74
2023/01/05 08:49:08;;;;;;;1.73;0.50;;;11.20;99.90;;;;;;4990421;28;20030;-74
2023/01/05 08:51:34;;;;;;;5.47;1.05;;;11.20;99.90;;;;;;4988159;28;20027;-73
2023/01/05 08:54:00;;;;;;;2.00;0.65;;;11.20;99.90;;;;;;4984633;28;20018;-72
2023/01/05 08:56:26;;;;;;;8.50;1.27;;;11.20;99.90;;;;;;4991114;28;20110;-72
2023/01/05 08:58:59;;;;;;;7.78;1.40;;;11.30;99.90;;;;;;4988779;28;20030;-72
2023/01/05 09:01:26;;;;;;;5.10;0.95;;;11.30;99.90;;;;;;4991239;28;20027;-73
2023/01/05 09:03:51;;;;;;;4.22;1.05;;;11.30;99.90;;;;;;4988303;28;20152;-73
2023/01/05 09:06:17;;;;;;;5.28;1.40;;;11.30;99.90;;;;;;4991278;28;20509;-73
2023/01/05 09:08:44;;;;;;;7.93;1.98;;;11.40;99.90;;;;;;4989738;28;20029;-73
2023/01/05 09:11:16;;;;;;;2.90;0.93;;;11.40;99.90;;;;;;4990788;28;20182;-72
2023/01/05 09:13:46;;;;;;;5.47;1.00;;;11.40;99.90;;;;;;4988992;28;20033;-72
2023/01/05 09:16:15;;;;;;;3.20;1.30;;;11.40;99.90;;;;;;4992000;28;20030;-73
2023/01/05 09:18:41;;;;;;;3.67;1.23;;;11.40;99.90;;;;;;4988153;28;20026;-76
2023/01/05 09:21:09;;;;;;;1.40;0.70;;;11.50;99.90;;;;;;4991251;28;20121;-71
2023/01/05 09:23:35;;;;;;;3.42;0.98;;;11.50;99.90;;;;;;4986749;28;20529;-68
2023/01/05 09:26:06;;;;;;;2.28;0.60;;;11.50;99.90;;;;;;4989818;28;20057;-72
2023/01/05 09:28:34;;;;;;;3.25;0.52;;;11.50;99.90;;;;;;4990518;28;20034;-70
2023/01/05 09:31:06;;;;;;;3.60;1.00;;;11.50;99.90;;;;;;4990428;28;20121;-73
2023/01/05 09:33:31;;;;;;;3.20;0.60;;;11.60;99.90;;;;;;4981960;28;20092;-72
2023/01/05 09:35:58;;;;;;;1.73;0.63;;;11.60;99.90;;;;;;4991351;28;20026;-72
2023/01/05 09:38:23;;;;;;;3.53;0.50;;;11.60;99.90;;;;;;4992048;28;20507;-74
2023/01/05 09:40:52;;;;;;;6.20;0.90;;;11.60;99.90;;;;;;4982677;28;20057;-73
2023/01/05 09:43:28;;;;;;;2.78;1.13;;;11.60;99.90;;;;;;4991966;28;20049;-71
2023/01/05 09:45:56;;;;;;;6.30;3.83;;;11.60;99.90;;;;;;4989475;28;20064;-72
2023/01/05 09:48:23;;;;;;;2.22;1.38;;;11.60;99.90;;;;;;4992197;28;20049;-71
2023/01/05 09:50:51;;;;;;;1.38;0.35;;;11.70;99.90;;;;;;4984602;28;20050;-71
2023/01/05 09:53:23;;;;;;;4.85;1.50;;;11.60;99.90;;;;;;4986093;28;20061;-71
2023/01/05 09:55:49;;;;;;;;;;;11.70;99.90;;;;;;4986553;28;20064;-75
2023/01/05 09:58:22;;;;;;;4.60;1.77;;;11.60;99.90;;;;;;4985689;28;19953;-70
2023/01/05 10:01:04;;;;;;;4.30;1.75;;;11.70;99.90;;;;;;4992440;28;20084;-74
2023/01/05 10:03:31;;;;;;;4.43;1.45;;;11.70;99.90;;;;;;4988362;28;20034;-71
2023/01/05 10:05:58;;;;;;;4.05;0.85;;;11.70;99.90;;;;;;4989595;28;20445;-72
2023/01/05 10:08:42;;;;;;;3.25;0.75;;;11.70;99.90;;;;;;4988915;28;20038;-72
2023/01/05 10:14:00;;;;;;;5.45;1.50;;;11.60;99.90;;;;;;4987069;28;20030;-71
2023/01/05 10:16:27;;;;;;;7.25;2.10;;;11.60;99.90;;;;;;4987481;28;20035;-72
2023/01/05 10:18:53;;;;;;;8.68;2.50;;;11.60;99.90;;;;;;4986616;28;20475;-71
2023/01/05 10:21:29;;;;;;;7.82;1.52;;;11.70;99.90;;;;;;4987974;28;20078;-70
2023/01/05 10:24:20;;;;;;;6.35;2.15;;;11.60;99.90;;;;;;4986273;28;20037;-70
2023/01/05 10:27:10;;;;;;;7.35;2.00;;;11.60;99.90;;;;;;4984236;28;20031;-71
2023/01/05 10:29:46;;;;;;;7.97;2.33;;;11.60;99.90;;;;;;4987422;28;20053;-71
2023/01/05 10:32:28;;;;;;;10.27;2.58;;;11.60;99.90;;;;;;4977691;28;20538;-70
2023/01/05 10:34:58;;;;;;;8.00;1.75;;;11.70;99.90;;;;;;4983906;28;20080;-71
2023/01/05 10:37:36;;;;;;;5.57;1.55;;;11.70;99.90;;;;;;4983789;28;20050;-70
2023/01/05 10:40:26;;;;;;;6.82;2.33;;;11.70;99.90;;;;;;4985125;28;20041;-70
2023/01/05 10:43:13;;;;;;;11.90;2.47;;;11.70;99.90;;;;;;4983400;28;20455;-71
2023/01/05 10:45:40;;;;;;;7.85;2.25;;;11.80;99.90;;;;;;4978412;28;20034;-75
2023/01/05 10:48:20;;;;;;;9.48;1.92;;;11.80;99.90;;;;;;4988554;28;20443;-73
2023/01/05 10:50:48;;;;;;;8.38;2.17;;;11.80;99.90;;;;;;4973448;28;20042;-68
2023/01/05 10:53:21;;;;;;;8.88;1.95;;;11.80;99.90;;;;;;4982686;28;20023;-70
2023/01/05 10:56:12;;;;;;;7.50;2.25;;;11.90;99.90;;;;;;4987713;28;20042;-68
2023/01/05 10:58:43;;;;;;;11.43;2.63;;;11.90;99.90;;;;;;4981423;28;20042;-69
2023/01/05 11:01:24;;;;;;;62.58;15.25;;;11.80;99.90;;;;;;4987814;28;20284;-71
2023/01/05 11:03:54;;;;;;;10.18;3.80;;;11.80;99.90;;;;;;4980802;28;21418;-70
2023/01/05 11:06:27;;;;;;;9.90;2.42;;;11.80;99.90;;;;;;4988765;28;20057;-68
2023/01/05 11:08:54;;;;;;;11.60;3.03;;;11.80;99.90;;;;;;4978687;28;20034;-68
2023/01/05 11:11:25;;;;;;;9.40;2.67;;;11.80;99.90;;;;;;4988659;28;20037;-70
2023/01/05 11:13:55;;;;;;;11.43;3.20;;;11.80;99.90;;;;;;4978224;28;20478;-73
2023/01/05 11:16:32;;;;;;;12.98;4.38;;;11.80;99.90;;;;;;4989012;28;20225;-73
2023/01/05 11:19:06;;;;;;;12.32;3.45;;;11.90;99.90;;;;;;4981711;28;20028;-71
2023/01/05 11:21:35;;;;;;;13.50;3.33;;;11.90;99.90;;;;;;4981101;28;20496;-71
2023/01/05 11:24:03;;;;;;;12.45;3.10;;;11.90;99.90;;;;;;4985412;28;20044;-70
2023/01/05 11:26:36;;;;;;;14.27;2.50;;;12.00;99.90;;;;;;4978472;28;20038;-72
2023/01/05 11:29:08;;;;;;;11.55;1.50;;;11.90;99.90;;;;;;4985446;28;20027;-72
2023/01/05 11:31:44;;;;;;;14.07;3.08;;;12.00;99.90;;;;;;4982474;28;20038;-71
2023/01/05 11:34:25;;;;;;;10.18;2.15;;;12.00;99.90;;;;;;4987295;28;20141;-71
2023/01/05 11:36:57;;;;;;;14.63;3.53;;;12.10;99.90;;;;;;4981106;28;20042;-71
2023/01/05 11:39:28;;;;;;;17.60;3.88;;;12.10;99.90;;;;;;4989628;28;20576;-68
2023/01/05 11:42:15;;;;;;;11.00;2.75;;;12.00;99.90;;;;;;4987109;28;20335;-71
2023/01/05 11:44:44;;;;;;;11.85;2.38;;;12.10;99.90;;;;;;5001905;28;20034;-69
2023/01/05 11:47:20;;;;;;;12.73;2.65;;;12.00;99.90;;;;;;4988636;28;20030;-71
2023/01/05 11:49:47;;;;;;;14.68;4.97;;;12.00;99.90;;;;;;4979873;28;20034;-70
2023/01/05 11:52:35;;;;;;;16.95;3.05;;;12.00;99.90;;;;;;4988306;28;20057;-70
2023/01/05 11:55:29;;;;;;;12.23;3.08;;;12.00;99.90;;;;;;4989221;28;20487;-70
2023/01/05 11:58:16;;;;;;;12.15;3.88;;;12.10;99.90;;;;;;4985702;28;20035;-70
2023/01/05 12:00:42;;;;;;;11.75;4.00;;;12.10;99.90;;;;;;4987786;28;20066;-71
2023/01/05 12:03:08;;;;;;;12.10;2.95;;;11.90;99.90;;;;;;4987892;28;20054;-71
2023/01/05 12:05:50;;;;;;;10.93;3.00;;;12.00;99.90;;;;;;4987347;28;20478;-71
2023/01/05 12:08:47;;;;;;;12.70;3.75;;;11.90;99.90;;;;;;5002084;28;20034;-71
2023/01/05 12:11:18;;;;;;;12.68;2.38;;;12.00;99.90;;;;;;4986624;28;20046;-70
2023/01/05 12:14:28;;;;;;;15.45;4.22;;;12.10;99.90;;;;;;4987313;28;20434;-70
2023/01/05 12:16:56;;;;;;;20.40;3.25;;;12.20;99.90;;;;;;4971783;28;20129;-71
2023/01/05 12:19:40;;;;;;;12.38;2.45;;;12.20;99.90;;;;;;4987437;28;20030;-71
2023/01/05 12:22:12;;;;;;;22.73;3.45;;;12.20;99.90;;;;;;4985748;28;20026;-71
2023/01/05 12:25:07;;;;;;;19.58;3.70;;;12.20;99.90;;;;;;4987560;28;20061;-71
2023/01/05 12:27:54;;;;;;;15.15;3.45;;;12.20;99.90;;;;;;4978700;28;20038;-70
2023/01/05 12:30:32;;;;;;;15.88;3.25;;;12.20;99.90;;;;;;4992157;28;20042;-71
2023/01/05 12:33:20;;;;;;;21.27;3.72;;;12.20;99.90;;;;;;4992297;28;20081;-71
2023/01/05 12:36:12;;;;;;;22.00;2.47;;;12.20;99.90;;;;;;4990937;28;20034;-71
2023/01/05 12:38:52;;;;;;;18.55;3.15;;;12.20;99.90;;;;;;4990335;28;20117;-72
2023/01/05 12:41:45;;;;;;;22.70;3.33;;;12.20;99.90;;;;;;4991480;28;20026;-71
2023/01/05 12:44:17;;;;;;;21.77;3.47;;;12.20;99.90;;;;;;4988871;28;20026;-70
2023/01/05 12:47:03;;;;;;;31.10;6.28;;;12.30;99.90;;;;;;4989202;28;20036;-72
2023/01/05 12:49:50;;;;;;;23.05;3.95;;;12.30;99.90;;;;;;4990721;28;20112;-71
2023/01/05 12:52:45;;;;;;;25.85;4.47;;;12.20;99.90;;;;;;4990499;28;20586;-71
2023/01/05 12:55:20;;;;;;;28.30;5.68;;;12.10;99.90;;;;;;4990301;28;20390;-70
2023/01/05 12:57:49;;;;;;;20.75;3.38;;;12.30;99.90;;;;;;4991689;28;20031;-70
2023/01/05 13:00:18;;;;;;;27.35;5.65;;;12.30;99.90;;;;;;4991944;28;20084;-70
2023/01/05 13:03:04;;;;;;;27.58;5.55;;;12.30;99.90;;;;;;4972737;28;20030;-71
2023/01/05 13:05:38;;;;;;;22.48;3.38;;;12.40;99.90;;;;;;4989177;28;20046;-70
2023/01/05 13:08:16;;;;;;;25.83;3.25;;;12.40;99.90;;;;;;4991036;28;20027;-71
2023/01/05 13:11:01;;;;;;;28.55;4.35;;;12.30;99.90;;;;;;4989297;28;20042;-71
2023/01/05 13:13:38;;;;;;;30.08;6.00;;;12.30;99.90;;;;;;4989795;28;20038;-70
2023/01/05 13:16:11;;;;;;;26.25;4.57;;;12.30;99.90;;;;;;4987575;28;20114;-69
2023/01/05 13:18:43;;;;;;;24.30;4.55;;;12.30;99.90;;;;;;4988990;28;20516;-71
2023/01/05 13:21:09;;;;;;;18.25;3.78;;;12.40;99.90;;;;;;4992521;28;20035;-69
2023/01/05 13:23:46;;;;;;;20.58;3.63;;;12.40;99.90;;;;;;4990366;28;20027;-71
2023/01/05 13:26:17;;;;;;;26.35;5.03;;;12.40;99.90;;;;;;4990423;28;20501;-72
2023/01/05 13:28:48;;;;;;;28.83;5.93;;;12.40;99.90;;;;;;4990174;28;20038;-71
2023/01/05 13:31:20;;;;;;;34.17;5.28;;;12.40;99.90;;;;;;4991579;28;20042;-71
2023/01/05 13:34:11;;;;;;;22.70;5.60;;;12.30;99.90;;;;;;4982530;28;20099;-72
2023/01/05 13:37:12;;;;;;;27.83;4.57;;;12.40;99.90;;;;;;4988261;28;20038;-70